sensor_id;sensor_type;location;lat;lon;timestamp;pressure;altitude;pressure_sealevel;temperature;humidity
67377;BME280;54261;46.086;6.588;2023-02-13T00:04:42;94076.91;;;2.35;40.20
67377;BME280;54261;46.086;6.588;2023-02-13T00:09:43;94045.53;;;1.89;40.05
67377;BME280;54261;46.086;6.588;2023-02-13T00:14:45;94075.59;;;1.64;40.92
67377;BME280;54261;46.086;6.588;2023-02-13T00:19:47;94062.38;;;1.08;41.45
67377;BME280;54261;46.086;6.588;2023-02-13T00:24:49;94076.84;;;-0.10;44.12
67377;BME280;54261;46.086;6.588;2023-02-13T00:29:51;94073.38;;;-0.49;45.11
67377;BME280;54261;46.086;6.588;2023-02-13T00:34:53;94075.09;;;-0.82;46.39
67377;BME280;54261;46.086;6.588;2023-02-13T00:39:56;94076.69;;;-0.74;46.18
67377;BME280;54261;46.086;6.588;2023-02-13T00:44:58;94073.53;;;1.66;43.10
67377;BME280;54261;46.086;6.588;2023-02-13T00:50:00;94078.41;;;0.37;43.45
67377;BME280;54261;46.086;6.588;2023-02-13T00:55:03;94082.81;;;0.18;44.14
67377;BME280;54261;46.086;6.588;2023-02-13T01:00:05;94078.34;;;0.12;43.86
67377;BME280;54261;46.086;6.588;2023-02-13T01:05:07;94072.63;;;0.98;42.73
67377;BME280;54261;46.086;6.588;2023-02-13T01:10:09;94079.06;;;0.83;41.88
67377;BME280;54261;46.086;6.588;2023-02-13T01:15:11;94080.69;;;1.96;42.22
67377;BME280;54261;46.086;6.588;2023-02-13T01:20:13;94082.28;;;1.11;41.55
67377;BME280;54261;46.086;6.588;2023-02-13T01:25:16;94096.06;;;0.94;42.29
67377;BME280;54261;46.086;6.588;2023-02-13T01:30:18;94092.88;;;1.67;41.22
67377;BME280;54261;46.086;6.588;2023-02-13T01:35:21;94101.41;;;1.69;41.17
67377;BME280;54261;46.086;6.588;2023-02-13T01:40:23;94081.88;;;0.63;41.88
67377;BME280;54261;46.086;6.588;2023-02-13T01:45:27;94091.13;;;1.60;41.20
67377;BME280;54261;46.086;6.588;2023-02-13T01:50:46;94063.19;;;1.27;41.16
67377;BME280;54261;46.086;6.588;2023-02-13T01:55:56;94073.59;;;1.03;41.41
67377;BME280;54261;46.086;6.588;2023-02-13T02:01:00;94088.84;;;0.83;42.07
67377;BME280;54261;46.086;6.588;2023-02-13T02:06:07;94080.53;;;1.60;40.33
67377;BME280;54261;46.086;6.588;2023-02-13T02:11:21;94085.72;;;1.86;39.95
67377;BME280;54261;46.086;6.588;2023-02-13T02:16:25;94057.44;;;1.30;40.66
67377;BME280;54261;46.086;6.588;2023-02-13T02:21:45;94079.69;;;-0.11;43.06
67377;BME280;54261;46.086;6.588;2023-02-13T02:32:30;94086.06;;;0.45;44.21
67377;BME280;54261;46.086;6.588;2023-02-13T02:38:00;94088.19;;;2.30;41.01
67377;BME280;54261;46.086;6.588;2023-02-13T02:48:32;94098.84;;;2.54;38.34
67377;BME280;54261;46.086;6.588;2023-02-13T02:54:24;94097.38;;;2.15;39.62
67377;BME280;54261;46.086;6.588;2023-02-13T02:59:48;94096.97;;;3.21;37.90
67377;BME280;54261;46.086;6.588;2023-02-13T03:05:18;94084.28;;;3.23;37.13
67377;BME280;54261;46.086;6.588;2023-02-13T03:10:40;94090.09;;;1.24;39.60
67377;BME280;54261;46.086;6.588;2023-02-13T03:16:23;94092.56;;;2.55;38.58
67377;BME280;54261;46.086;6.588;2023-02-13T03:21:58;94071.44;;;0.75;41.78
67377;BME280;54261;46.086;6.588;2023-02-13T03:27:56;94088.50;;;0.47;41.78
67377;BME280;54261;46.086;6.588;2023-02-13T03:38:52;94076.97;;;0.92;41.72
67377;BME280;54261;46.086;6.588;2023-02-13T03:49:34;94093.00;;;2.21;39.29
67377;BME280;54261;46.086;6.588;2023-02-13T03:54:59;94091.47;;;2.44;38.05
67377;BME280;54261;46.086;6.588;2023-02-13T04:00:21;94071.41;;;1.56;39.00
67377;BME280;54261;46.086;6.588;2023-02-13T04:05:25;94086.09;;;1.15;40.90
67377;BME280;54261;46.086;6.588;2023-02-13T04:10:33;94073.63;;;2.21;38.33
67377;BME280;54261;46.086;6.588;2023-02-13T04:15:44;94066.69;;;1.58;38.51
67377;BME280;54261;46.086;6.588;2023-02-13T04:20:47;94103.09;;;2.43;38.38
67377;BME280;54261;46.086;6.588;2023-02-13T04:25:51;94096.72;;;2.63;37.64
67377;BME280;54261;46.086;6.588;2023-02-13T04:30:54;94102.44;;;2.59;37.40
67377;BME280;54261;46.086;6.588;2023-02-13T04:35:58;94099.34;;;1.34;38.72
67377;BME280;54261;46.086;6.588;2023-02-13T04:41:00;94107.28;;;1.71;38.85
67377;BME280;54261;46.086;6.588;2023-02-13T04:46:02;94105.69;;;2.00;38.72
67377;BME280;54261;46.086;6.588;2023-02-13T04:51:04;94108.75;;;0.85;39.65
67377;BME280;54261;46.086;6.588;2023-02-13T04:56:06;94105.56;;;1.02;40.03
67377;BME280;54261;46.086;6.588;2023-02-13T05:01:13;94098.59;;;1.26;39.57
67377;BME280;54261;46.086;6.588;2023-02-13T05:06:15;94107.44;;;1.57;39.22
67377;BME280;54261;46.086;6.588;2023-02-13T05:11:17;94105.22;;;0.34;41.35
67377;BME280;54261;46.086;6.588;2023-02-13T05:16:19;94099.50;;;1.76;39.70
67377;BME280;54261;46.086;6.588;2023-02-13T05:21:20;94109.19;;;1.45;39.35
67377;BME280;54261;46.086;6.588;2023-02-13T05:26:41;94109.41;;;2.11;39.15
67377;BME280;54261;46.086;6.588;2023-02-13T05:31:44;94104.78;;;1.39;40.26
67377;BME280;54261;46.086;6.588;2023-02-13T05:36:46;94108.41;;;2.43;38.18
67377;BME280;54261;46.086;6.588;2023-02-13T05:41:48;94103.63;;;2.02;38.33
67377;BME280;54261;46.086;6.588;2023-02-13T05:46:50;94105.41;;;2.09;38.89
67377;BME280;54261;46.086;6.588;2023-02-13T05:51:53;94111.78;;;1.70;39.70
67377;BME280;54261;46.086;6.588;2023-02-13T05:56:55;94095.03;;;0.12;41.64
67377;BME280;54261;46.086;6.588;2023-02-13T06:01:57;94107.81;;;0.98;41.50
67377;BME280;54261;46.086;6.588;2023-02-13T06:06:59;94116.13;;;0.51;41.21
67377;BME280;54261;46.086;6.588;2023-02-13T06:12:00;94104.56;;;2.08;39.35
67377;BME280;54261;46.086;6.588;2023-02-13T06:17:02;94126.31;;;1.98;37.88
67377;BME280;54261;46.086;6.588;2023-02-13T06:22:04;94134.69;;;2.44;37.31
67377;BME280;54261;46.086;6.588;2023-02-13T06:27:05;94127.59;;;2.57;37.32
67377;BME280;54261;46.086;6.588;2023-02-13T06:32:07;94137.75;;;2.72;36.87
67377;BME280;54261;46.086;6.588;2023-02-13T06:37:09;94136.00;;;2.35;36.63
67377;BME280;54261;46.086;6.588;2023-02-13T06:42:11;94142.84;;;2.85;37.26
67377;BME280;54261;46.086;6.588;2023-02-13T06:47:13;94129.47;;;2.80;36.61
67377;BME280;54261;46.086;6.588;2023-02-13T06:52:14;94145.84;;;2.77;36.92
67377;BME280;54261;46.086;6.588;2023-02-13T06:57:16;94142.63;;;2.14;37.48
67377;BME280;54261;46.086;6.588;2023-02-13T07:02:18;94152.19;;;2.76;36.55
67377;BME280;54261;46.086;6.588;2023-02-13T07:07:20;94156.44;;;0.72;39.36
67377;BME280;54261;46.086;6.588;2023-02-13T07:12:22;94154.28;;;1.76;38.74
67377;BME280;54261;46.086;6.588;2023-02-13T07:17:23;94152.22;;;2.46;38.07
67377;BME280;54261;46.086;6.588;2023-02-13T07:22:26;94159.13;;;3.01;37.18
67377;BME280;54261;46.086;6.588;2023-02-13T07:27:28;94159.28;;;3.06;36.37
67377;BME280;54261;46.086;6.588;2023-02-13T07:32:30;94165.75;;;3.34;36.02
67377;BME280;54261;46.086;6.588;2023-02-13T07:37:32;94168.94;;;3.12;36.34
67377;BME280;54261;46.086;6.588;2023-02-13T07:42:34;94164.72;;;2.08;37.19
67377;BME280;54261;46.086;6.588;2023-02-13T07:47:35;94174.47;;;2.56;37.25
67377;BME280;54261;46.086;6.588;2023-02-13T07:52:37;94177.88;;;2.64;37.73
67377;BME280;54261;46.086;6.588;2023-02-13T07:57:39;94172.47;;;2.70;37.11
67377;BME280;54261;46.086;6.588;2023-02-13T08:02:41;94176.06;;;2.88;37.50
67377;BME280;54261;46.086;6.588;2023-02-13T08:07:43;94172.78;;;3.17;37.20
67377;BME280;54261;46.086;6.588;2023-02-13T08:12:45;94175.53;;;3.81;36.24
67377;BME280;54261;46.086;6.588;2023-02-13T08:17:47;94176.72;;;4.26;35.53
67377;BME280;54261;46.086;6.588;2023-02-13T08:22:49;94179.41;;;4.44;35.28
67377;BME280;54261;46.086;6.588;2023-02-13T08:27:51;94184.09;;;4.36;34.75
67377;BME280;54261;46.086;6.588;2023-02-13T08:32:53;94186.19;;;4.34;34.50
67377;BME280;54261;46.086;6.588;2023-02-13T08:37:55;94176.06;;;4.48;34.93
67377;BME280;54261;46.086;6.588;2023-02-13T08:43:02;94177.72;;;4.66;34.45
67377;BME280;54261;46.086;6.588;2023-02-13T08:48:04;94181.72;;;4.98;34.25
67377;BME280;54261;46.086;6.588;2023-02-13T08:53:06;94183.50;;;5.09;34.13
67377;BME280;54261;46.086;6.588;2023-02-13T08:58:08;94186.19;;;4.63;33.76
67377;BME280;54261;46.086;6.588;2023-02-13T09:03:10;94189.28;;;5.06;33.95
67377;BME280;54261;46.086;6.588;2023-02-13T09:08:12;94189.56;;;4.18;35.03
67377;BME280;54261;46.086;6.588;2023-02-13T09:13:14;94189.34;;;4.48;35.75
67377;BME280;54261;46.086;6.588;2023-02-13T09:18:16;94198.09;;;2.89;38.53
67377;BME280;54261;46.086;6.588;2023-02-13T09:23:18;94197.34;;;1.64;40.19
67377;BME280;54261;46.086;6.588;2023-02-13T09:28:19;94185.44;;;0.85;42.01
67377;BME280;54261;46.086;6.588;2023-02-13T09:33:22;94173.53;;;1.64;41.71
67377;BME280;54261;46.086;6.588;2023-02-13T09:38:24;94187.13;;;2.42;39.92
67377;BME280;54261;46.086;6.588;2023-02-13T09:43:48;94194.94;;;1.81;41.20
67377;BME280;54261;46.086;6.588;2023-02-13T09:48:55;94197.25;;;0.44;44.25
67377;BME280;54261;46.086;6.588;2023-02-13T09:54:05;94180.41;;;-1.14;48.02
67377;BME280;54261;46.086;6.588;2023-02-13T10:04:48;94202.50;;;0.51;45.58
67377;BME280;54261;46.086;6.588;2023-02-13T10:15:41;94204.19;;;0.38;46.38
67377;BME280;54261;46.086;6.588;2023-02-13T10:20:58;94177.34;;;1.06;44.79
67377;BME280;54261;46.086;6.588;2023-02-13T10:26:06;94196.81;;;0.47;46.38
67377;BME280;54261;46.086;6.588;2023-02-13T10:31:18;94190.44;;;1.63;44.15
67377;BME280;54261;46.086;6.588;2023-02-13T10:36:44;94201.06;;;1.82;43.97
67377;BME280;54261;46.086;6.588;2023-02-13T11:03:19;94184.50;;;4.16;39.58
67377;BME280;54261;46.086;6.588;2023-02-13T11:08:42;94175.53;;;3.69;40.72
67377;BME280;54261;46.086;6.588;2023-02-13T11:13:44;94110.56;;;3.48;40.68
67377;BME280;54261;46.086;6.588;2023-02-13T11:18:48;94163.97;;;3.76;40.07
67377;BME280;54261;46.086;6.588;2023-02-13T11:23:52;94140.00;;;3.11;40.95
67377;BME280;54261;46.086;6.588;2023-02-13T11:28:58;94153.97;;;3.06;41.22
67377;BME280;54261;46.086;6.588;2023-02-13T11:34:24;94149.94;;;2.49;43.18
67377;BME280;54261;46.086;6.588;2023-02-13T11:39:26;94165.25;;;2.90;42.71
67377;BME280;54261;46.086;6.588;2023-02-13T11:44:30;94146.97;;;3.89;41.88
67377;BME280;54261;46.086;6.588;2023-02-13T11:49:35;94154.31;;;3.46;42.53
67377;BME280;54261;46.086;6.588;2023-02-13T11:54:39;94147.38;;;2.97;43.16
67377;BME280;54261;46.086;6.588;2023-02-13T11:59:44;94141.63;;;3.48;42.27
67377;BME280;54261;46.086;6.588;2023-02-13T12:04:51;94069.16;;;3.11;42.60
67377;BME280;54261;46.086;6.588;2023-02-13T12:15:22;94139.31;;;3.27;42.08
67377;BME280;54261;46.086;6.588;2023-02-13T12:20:27;94129.72;;;5.07;38.48
67377;BME280;54261;46.086;6.588;2023-02-13T12:25:55;94116.00;;;4.35;40.18
67377;BME280;54261;46.086;6.588;2023-02-13T12:36:42;94127.31;;;3.13;42.40
67377;BME280;54261;46.086;6.588;2023-02-13T12:47:34;94106.28;;;4.12;41.43
67377;BME280;54261;46.086;6.588;2023-02-13T12:52:47;94113.53;;;5.88;39.45
67377;BME280;54261;46.086;6.588;2023-02-13T12:58:11;94100.09;;;4.23;40.34
67377;BME280;54261;46.086;6.588;2023-02-13T13:15:00;94066.84;;;7.33;34.40
67377;BME280;54261;46.086;6.588;2023-02-13T13:20:31;94081.91;;;10.45;30.87
67377;BME280;54261;46.086;6.588;2023-02-13T13:25:42;94069.69;;;8.48;33.31
67377;BME280;54261;46.086;6.588;2023-02-13T13:30:48;94080.88;;;9.65;32.50
67377;BME280;54261;46.086;6.588;2023-02-13T13:41:03;94072.06;;;10.30;30.54
67377;BME280;54261;46.086;6.588;2023-02-13T13:51:31;94063.03;;;10.10;31.15
67377;BME280;54261;46.086;6.588;2023-02-13T14:07:24;94034.06;;;8.38;33.30
67377;BME280;54261;46.086;6.588;2023-02-13T14:22:47;94038.53;;;9.72;32.17
67377;BME280;54261;46.086;6.588;2023-02-13T14:28:01;94043.94;;;9.56;31.11
67377;BME280;54261;46.086;6.588;2023-02-13T14:33:05;94024.19;;;9.11;31.63
67377;BME280;54261;46.086;6.588;2023-02-13T14:38:21;94048.84;;;9.18;31.94
67377;BME280;54261;46.086;6.588;2023-02-13T14:48:40;93992.94;;;7.54;34.17
67377;BME280;54261;46.086;6.588;2023-02-13T14:53:51;94042.66;;;8.29;33.86
67377;BME280;54261;46.086;6.588;2023-02-13T14:59:14;94037.06;;;8.93;32.93
67377;BME280;54261;46.086;6.588;2023-02-13T15:04:29;94027.97;;;9.04;32.33
67377;BME280;54261;46.086;6.588;2023-02-13T15:09:40;94016.97;;;8.64;32.32
67377;BME280;54261;46.086;6.588;2023-02-13T15:14:45;94026.88;;;10.82;30.25
67377;BME280;54261;46.086;6.588;2023-02-13T15:19:52;94029.81;;;10.86;29.38
67377;BME280;54261;46.086;6.588;2023-02-13T15:24:55;94017.69;;;7.98;33.20
67377;BME280;54261;46.086;6.588;2023-02-13T15:30:01;94035.41;;;10.55;30.49
67377;BME280;54261;46.086;6.588;2023-02-13T15:35:26;94026.53;;;10.94;29.74
67377;BME280;54261;46.086;6.588;2023-02-13T15:40:32;94028.19;;;8.15;33.40
67377;BME280;54261;46.086;6.588;2023-02-13T15:45:42;94022.13;;;9.73;31.55
67377;BME280;54261;46.086;6.588;2023-02-13T15:50:44;94003.31;;;8.87;31.79
67377;BME280;54261;46.086;6.588;2023-02-13T15:56:03;94031.91;;;11.24;29.08
67377;BME280;54261;46.086;6.588;2023-02-13T16:01:06;94028.38;;;9.53;31.64
67377;BME280;54261;46.086;6.588;2023-02-13T16:06:18;94028.34;;;10.64;30.16
67377;BME280;54261;46.086;6.588;2023-02-13T16:11:29;94028.56;;;11.62;28.79
67377;BME280;54261;46.086;6.588;2023-02-13T16:16:52;94020.72;;;7.53;33.78
67377;BME280;54261;46.086;6.588;2023-02-13T16:21:57;94032.69;;;7.99;34.24
67377;BME280;54261;46.086;6.588;2023-02-13T16:27:00;94042.03;;;11.02;29.95
67377;BME280;54261;46.086;6.588;2023-02-13T16:32:05;94045.84;;;10.96;29.55
67377;BME280;54261;46.086;6.588;2023-02-13T16:37:34;94042.13;;;10.92;29.91
67377;BME280;54261;46.086;6.588;2023-02-13T16:42:36;94051.84;;;11.17;29.36
67377;BME280;54261;46.086;6.588;2023-02-13T16:47:37;94047.00;;;11.44;28.79
67377;BME280;54261;46.086;6.588;2023-02-13T16:52:39;94048.13;;;11.67;28.51
67377;BME280;54261;46.086;6.588;2023-02-13T16:57:41;94043.72;;;11.52;28.28
67377;BME280;54261;46.086;6.588;2023-02-13T17:02:46;94063.97;;;11.15;28.57
67377;BME280;54261;46.086;6.588;2023-02-13T17:07:50;94063.56;;;10.97;28.92
67377;BME280;54261;46.086;6.588;2023-02-13T17:13:15;94066.91;;;9.83;29.92
67377;BME280;54261;46.086;6.588;2023-02-13T17:18:20;94061.94;;;8.93;31.23
67377;BME280;54261;46.086;6.588;2023-02-13T17:23:23;94048.84;;;8.61;31.81
67377;BME280;54261;46.086;6.588;2023-02-13T17:28:26;94079.56;;;8.32;32.42
67377;BME280;54261;46.086;6.588;2023-02-13T17:33:30;94083.91;;;8.75;31.90
67377;BME280;54261;46.086;6.588;2023-02-13T17:38:34;94085.03;;;7.41;33.52
67377;BME280;54261;46.086;6.588;2023-02-13T17:43:36;94086.03;;;7.30;34.20
67377;BME280;54261;46.086;6.588;2023-02-13T17:48:38;94082.91;;;7.00;33.97
67377;BME280;54261;46.086;6.588;2023-02-13T17:53:40;94094.25;;;7.23;34.62
67377;BME280;54261;46.086;6.588;2023-02-13T17:58:42;93989.81;;;6.06;33.94
67377;BME280;54261;46.086;6.588;2023-02-13T18:03:44;94086.97;;;7.51;33.16
67377;BME280;54261;46.086;6.588;2023-02-13T18:08:46;94060.59;;;6.51;32.95
67377;BME280;54261;46.086;6.588;2023-02-13T18:13:47;94076.97;;;5.61;34.22
67377;BME280;54261;46.086;6.588;2023-02-13T18:18:50;94061.59;;;5.90;35.01
67377;BME280;54261;46.086;6.588;2023-02-13T18:23:52;94086.00;;;6.04;35.80
67377;BME280;54261;46.086;6.588;2023-02-13T18:28:54;94100.03;;;7.04;34.85
67377;BME280;54261;46.086;6.588;2023-02-13T18:33:56;94090.69;;;6.47;35.17
67377;BME280;54261;46.086;6.588;2023-02-13T18:38:58;94057.41;;;5.72;36.13
67377;BME280;54261;46.086;6.588;2023-02-13T18:44:00;94083.53;;;5.97;35.21
67377;BME280;54261;46.086;6.588;2023-02-13T18:49:02;94089.97;;;5.40;36.19
67377;BME280;54261;46.086;6.588;2023-02-13T18:54:05;94095.47;;;5.50;35.68
67377;BME280;54261;46.086;6.588;2023-02-13T18:59:07;94084.91;;;6.82;34.21
67377;BME280;54261;46.086;6.588;2023-02-13T19:04:09;94091.16;;;7.36;32.61
67377;BME280;54261;46.086;6.588;2023-02-13T19:09:11;94083.50;;;7.56;31.94
67377;BME280;54261;46.086;6.588;2023-02-13T19:14:14;94016.34;;;7.26;30.75
67377;BME280;54261;46.086;6.588;2023-02-13T19:19:16;94051.69;;;7.49;31.00
67377;BME280;54261;46.086;6.588;2023-02-13T19:24:17;94083.59;;;6.85;30.81
67377;BME280;54261;46.086;6.588;2023-02-13T19:29:19;94089.97;;;7.60;30.25
67377;BME280;54261;46.086;6.588;2023-02-13T19:34:21;94092.66;;;7.65;30.11
67377;BME280;54261;46.086;6.588;2023-02-13T19:39:23;94089.59;;;7.46;30.02
67377;BME280;54261;46.086;6.588;2023-02-13T19:44:25;94088.81;;;7.45;29.87
67377;BME280;54261;46.086;6.588;2023-02-13T19:49:27;94094.03;;;7.24;30.26
67377;BME280;54261;46.086;6.588;2023-02-13T19:54:29;94098.50;;;6.81;31.15
67377;BME280;54261;46.086;6.588;2023-02-13T19:59:30;94092.38;;;6.03;32.19
67377;BME280;54261;46.086;6.588;2023-02-13T20:04:33;94070.00;;;6.59;30.72
67377;BME280;54261;46.086;6.588;2023-02-13T20:09:38;94100.84;;;6.22;30.62
67377;BME280;54261;46.086;6.588;2023-02-13T20:14:40;94069.00;;;6.65;29.83
67377;BME280;54261;46.086;6.588;2023-02-13T20:19:42;94081.81;;;6.68;30.42
67377;BME280;54261;46.086;6.588;2023-02-13T20:24:45;94108.66;;;6.84;30.17
67377;BME280;54261;46.086;6.588;2023-02-13T20:29:47;94094.44;;;6.18;31.69
67377;BME280;54261;46.086;6.588;2023-02-13T20:34:49;94112.59;;;5.77;31.61
67377;BME280;54261;46.086;6.588;2023-02-13T20:40:00;94113.50;;;6.60;31.62
67377;BME280;54261;46.086;6.588;2023-02-13T20:45:02;94104.97;;;6.08;31.97
67377;BME280;54261;46.086;6.588;2023-02-13T20:50:05;94114.03;;;6.34;31.99
67377;BME280;54261;46.086;6.588;2023-02-13T20:55:07;94119.03;;;5.81;31.36
67377;BME280;54261;46.086;6.588;2023-02-13T21:00:09;94123.53;;;5.58;32.61
67377;BME280;54261;46.086;6.588;2023-02-13T21:05:13;94136.47;;;5.49;32.57
67377;BME280;54261;46.086;6.588;2023-02-13T21:10:15;94105.00;;;5.46;32.89
67377;BME280;54261;46.086;6.588;2023-02-13T21:15:17;94124.88;;;5.78;32.85
67377;BME280;54261;46.086;6.588;2023-02-13T21:20:19;94122.06;;;5.67;31.78
67377;BME280;54261;46.086;6.588;2023-02-13T21:25:21;94117.44;;;4.72;32.47
67377;BME280;54261;46.086;6.588;2023-02-13T21:30:23;94138.72;;;5.40;33.33
67377;BME280;54261;46.086;6.588;2023-02-13T21:35:25;94141.25;;;4.96;34.23
67377;BME280;54261;46.086;6.588;2023-02-13T21:40:27;94143.63;;;4.63;34.62
67377;BME280;54261;46.086;6.588;2023-02-13T21:45:28;94146.16;;;5.21;34.04
67377;BME280;54261;46.086;6.588;2023-02-13T21:50:30;94145.34;;;4.11;35.93
67377;BME280;54261;46.086;6.588;2023-02-13T21:55:32;94142.44;;;5.39;34.29
67377;BME280;54261;46.086;6.588;2023-02-13T22:00:34;94136.16;;;5.29;34.40
67377;BME280;54261;46.086;6.588;2023-02-13T22:05:36;94143.78;;;4.56;34.75
67377;BME280;54261;46.086;6.588;2023-02-13T22:10:38;94105.97;;;2.96;37.43
67377;BME280;54261;46.086;6.588;2023-02-13T22:15:39;94116.22;;;3.52;37.07
67377;BME280;54261;46.086;6.588;2023-02-13T22:20:41;94140.78;;;4.53;34.66
67377;BME280;54261;46.086;6.588;2023-02-13T22:25:47;94138.50;;;3.15;36.43
67377;BME280;54261;46.086;6.588;2023-02-13T22:30:49;94140.81;;;3.11;36.86
67377;BME280;54261;46.086;6.588;2023-02-13T22:35:51;94140.22;;;4.22;35.45
67377;BME280;54261;46.086;6.588;2023-02-13T22:40:52;94134.53;;;3.77;36.50
67377;BME280;54261;46.086;6.588;2023-02-13T22:45:54;94139.88;;;3.65;36.00
67377;BME280;54261;46.086;6.588;2023-02-13T22:51:00;94131.00;;;3.36;36.10
67377;BME280;54261;46.086;6.588;2023-02-13T22:56:04;94122.78;;;4.43;35.58
67377;BME280;54261;46.086;6.588;2023-02-13T23:01:11;94145.16;;;3.77;35.32
67377;BME280;54261;46.086;6.588;2023-02-13T23:06:14;94144.13;;;4.77;34.47
67377;BME280;54261;46.086;6.588;2023-02-13T23:11:16;94078.69;;;4.01;34.96
67377;BME280;54261;46.086;6.588;2023-02-13T23:16:40;94159.81;;;3.80;35.84
67377;BME280;54261;46.086;6.588;2023-02-13T23:22:00;94151.78;;;3.39;35.88
67377;BME280;54261;46.086;6.588;2023-02-13T23:27:02;94152.22;;;4.24;35.28
67377;BME280;54261;46.086;6.588;2023-02-13T23:32:04;94140.94;;;5.09;34.83
67377;BME280;54261;46.086;6.588;2023-02-13T23:37:06;94146.13;;;4.70;33.87
67377;BME280;54261;46.086;6.588;2023-02-13T23:42:08;94139.38;;;4.96;34.23
67377;BME280;54261;46.086;6.588;2023-02-13T23:47:10;94138.03;;;3.54;35.74
67377;BME280;54261;46.086;6.588;2023-02-13T23:52:11;94135.81;;;4.91;34.04
67377;BME280;54261;46.086;6.588;2023-02-13T23:57:13;94132.84;;;5.04;32.92
